createdAt,value
2017-07-11T05:31:58.566Z,90
2017-07-11T05:32:24.054Z,85
2017-07-11T05:32:49.520Z,120
2017-07-11T05:33:14.996Z,130
2017-07-11T05:33:40.448Z,130
2017-07-11T05:34:05.914Z,135
2017-07-11T05:34:31.372Z,110
2017-07-11T05:34:56.821Z,145
2017-07-11T05:35:22.289Z,140
2017-07-11T05:35:47.767Z,130
2017-07-11T05:36:13.214Z,125
2017-07-11T05:36:38.698Z,155
2017-07-11T05:37:04.154Z,155
2017-07-11T05:37:29.794Z,150
2017-07-11T05:37:55.249Z,130
2017-07-11T05:38:20.736Z,95
2017-07-11T05:38:46.234Z,95
2017-07-11T05:39:11.685Z,90
2017-07-11T05:39:37.150Z,90
2017-07-11T05:40:02.610Z,85
2017-07-11T05:40:28.053Z,90
2017-07-11T05:40:53.521Z,95
2017-07-11T05:41:19.042Z,95
2017-07-11T05:41:44.512Z,100
2017-07-11T05:42:09.952Z,110
2017-07-11T05:42:35.394Z,125
2017-07-11T05:43:00.846Z,125
2017-07-11T05:43:26.323Z,130
2017-07-11T05:43:51.795Z,135
2017-07-11T05:44:17.291Z,125
2017-07-11T05:44:42.792Z,120
2017-07-11T05:45:08.259Z,145
2017-07-11T05:45:33.743Z,145
2017-07-11T05:45:59.263Z,130
2017-07-11T05:46:24.751Z,130
2017-07-11T05:46:50.273Z,160
2017-07-11T05:47:15.694Z,145
2017-07-11T05:47:41.167Z,125
2017-07-11T05:48:06.656Z,110
2017-07-11T05:48:32.110Z,105
2017-07-11T05:48:57.568Z,105
2017-07-11T05:49:23.067Z,110
2017-07-11T05:49:48.533Z,125
2017-07-11T05:50:13.997Z,140
2017-07-11T05:50:39.458Z,155
2017-07-11T05:51:04.913Z,160
2017-07-11T05:51:30.398Z,150
2017-07-11T05:51:55.922Z,140
2017-07-11T05:52:21.400Z,130
2017-07-11T05:52:47.192Z,130
2017-07-11T05:53:12.723Z,140
2017-07-11T05:53:38.172Z,135
2017-07-11T05:54:03.699Z,130
2017-07-11T05:54:29.153Z,125
2017-07-11T05:54:54.635Z,120
2017-07-11T05:55:20.129Z,130
2017-07-11T05:55:45.604Z,135
2017-07-11T05:56:11.105Z,140
2017-07-11T05:56:36.625Z,145
2017-07-11T05:57:02.072Z,150
2017-07-11T05:57:27.682Z,150
2017-07-11T05:57:53.150Z,150
2017-07-11T05:58:18.609Z,140
2017-07-11T05:58:44.076Z,125
2017-07-11T05:59:09.548Z,115
2017-07-11T05:59:35.006Z,105
2017-07-11T06:00:00.468Z,95
2017-07-11T06:00:25.928Z,95
2017-07-11T06:00:51.392Z,95
2017-07-11T06:01:16.854Z,90
2017-07-11T06:01:42.297Z,85
2017-07-11T06:02:07.762Z,85
2017-07-11T06:02:33.226Z,85
2017-07-11T06:02:58.735Z,85
2017-07-11T06:03:24.217Z,85
2017-07-11T06:03:49.674Z,85
2017-07-11T06:04:15.123Z,85
2017-07-11T06:04:40.566Z,90
2017-07-11T06:05:06.032Z,90
2017-07-11T06:05:31.502Z,95
2017-07-11T06:05:56.954Z,95
2017-07-11T06:06:22.410Z,90
2017-07-11T06:06:47.879Z,90
2017-07-11T06:07:13.342Z,95
2017-07-11T06:07:38.894Z,95
2017-07-11T06:08:04.342Z,90
2017-07-11T06:08:29.845Z,90
2017-07-11T06:08:55.317Z,90
2017-07-11T06:09:20.781Z,100
2017-07-11T06:09:46.268Z,120
2017-07-11T06:10:11.729Z,145
2017-07-11T06:10:37.195Z,145
2017-07-11T06:11:02.661Z,155
2017-07-11T06:11:28.150Z,135
2017-07-11T06:11:53.671Z,120
2017-07-11T06:12:19.123Z,115
2017-07-11T06:12:44.613Z,115
2017-07-11T06:13:10.088Z,125
2017-07-11T06:13:35.573Z,130
2017-07-11T06:14:01.045Z,125
2017-07-11T06:14:26.502Z,135
2017-07-11T06:14:51.982Z,120
2017-07-11T06:15:17.454Z,100
2017-07-11T06:15:42.906Z,90
2017-07-11T06:16:08.388Z,90
2017-07-11T06:16:33.856Z,100
2017-07-11T06:16:59.329Z,110
2017-07-11T06:17:24.789Z,115
2017-07-11T06:17:50.307Z,130
2017-07-11T06:18:15.794Z,115
2017-07-11T06:18:41.282Z,95
2017-07-11T06:19:06.769Z,105
2017-07-11T06:19:32.239Z,90
2017-07-11T06:19:57.698Z,75
2017-07-11T06:20:23.160Z,75
2017-07-11T06:20:48.625Z,70
2017-07-11T06:21:14.116Z,75
2017-07-11T06:21:39.606Z,80
2017-07-11T06:22:05.088Z,95
2017-07-11T06:22:30.546Z,95
2017-07-11T06:22:56.040Z,95
2017-07-11T06:23:21.511Z,105
2017-07-11T06:23:46.985Z,105
2017-07-11T06:24:12.446Z,95
2017-07-11T06:24:37.932Z,85
2017-07-11T06:25:03.429Z,75
2017-07-11T06:25:28.892Z,65
2017-07-11T06:25:54.398Z,65
2017-07-11T06:26:19.893Z,65
2017-07-11T06:26:45.388Z,65
2017-07-11T06:27:10.861Z,65
2017-07-11T06:27:36.374Z,65
2017-07-11T06:28:01.842Z,70
2017-07-11T06:28:27.308Z,65
2017-07-11T06:28:52.771Z,75
2017-07-11T06:29:18.277Z,80
2017-07-11T06:29:43.739Z,75
2017-07-11T06:30:09.188Z,85
2017-07-11T06:30:34.665Z,85
2017-07-11T06:31:00.120Z,85
2017-07-11T06:31:25.608Z,90
2017-07-11T06:31:51.094Z,80
2017-07-11T06:32:16.594Z,80
2017-07-11T06:32:42.049Z,85
2017-07-11T06:33:07.513Z,80
2017-07-11T06:33:32.948Z,75
2017-07-11T06:33:58.393Z,75
2017-07-11T06:34:23.909Z,80
2017-07-11T06:34:49.404Z,90
2017-07-11T06:35:14.860Z,95
2017-07-11T06:35:40.333Z,90
2017-07-11T06:36:05.794Z,90
2017-07-11T06:36:31.287Z,95
2017-07-11T06:36:56.798Z,90
2017-07-11T06:37:22.252Z,90
2017-07-11T06:37:47.712Z,100
2017-07-11T06:38:13.176Z,115
2017-07-11T06:38:38.640Z,135
2017-07-11T06:39:04.137Z,135
2017-07-11T06:39:29.600Z,120
2017-07-11T06:39:55.070Z,115
2017-07-11T06:40:20.530Z,115
2017-07-11T06:40:46.016Z,110
2017-07-11T06:41:11.470Z,115
2017-07-11T06:41:36.946Z,115
2017-07-11T06:42:02.409Z,125
2017-07-11T06:42:27.887Z,130
2017-07-11T06:42:53.400Z,105
2017-07-11T06:43:18.862Z,100
2017-07-11T06:43:44.305Z,105
2017-07-11T06:44:09.769Z,100
2017-07-11T06:44:35.229Z,90
2017-07-11T06:45:00.689Z,90
2017-07-11T06:45:26.161Z,95
2017-07-11T06:45:51.604Z,100
2017-07-11T06:46:17.089Z,105
2017-07-11T06:46:42.549Z,110
2017-07-11T06:47:08.048Z,120
2017-07-11T06:47:33.510Z,115
2017-07-11T06:47:58.990Z,110
2017-07-11T06:48:24.499Z,110
2017-07-11T06:48:50.059Z,110
2017-07-11T06:49:15.526Z,110
2017-07-11T06:49:40.970Z,115
2017-07-11T06:50:06.458Z,120
2017-07-11T06:50:31.913Z,120
2017-07-11T06:50:57.369Z,120
2017-07-11T06:51:22.857Z,125
2017-07-11T06:51:48.323Z,125
2017-07-11T06:52:13.800Z,120
2017-07-11T06:52:39.248Z,115
2017-07-11T06:53:04.728Z,130
2017-07-11T06:53:30.208Z,130
2017-07-11T06:53:55.696Z,125
2017-07-11T06:54:21.181Z,125
2017-07-11T06:54:46.669Z,130
2017-07-11T06:55:12.155Z,125
2017-07-11T06:55:37.658Z,135
2017-07-11T06:56:03.141Z,130
2017-07-11T06:56:28.611Z,115
2017-07-11T06:56:54.063Z,115
2017-07-11T06:57:19.532Z,120
2017-07-11T06:57:45.017Z,120
2017-07-11T06:58:10.467Z,130
2017-07-11T06:58:35.964Z,140
2017-07-11T06:59:01.466Z,160
2017-07-11T06:59:26.900Z,165
2017-07-11T06:59:52.392Z,170
2017-07-11T07:00:17.841Z,160
2017-07-11T07:00:43.322Z,140
2017-07-11T07:01:08.805Z,135
2017-07-11T07:01:34.275Z,135
2017-07-11T07:01:59.744Z,145
2017-07-11T07:02:25.216Z,150
2017-07-11T07:02:50.703Z,135
2017-07-11T07:03:16.165Z,130
2017-07-11T07:03:41.643Z,130
2017-07-11T07:04:07.108Z,130
2017-07-11T07:04:32.566Z,130
2017-07-11T07:04:58.039Z,120
2017-07-11T07:05:23.518Z,125
2017-07-11T07:05:49.008Z,135
2017-07-11T07:06:14.451Z,140
2017-07-11T07:06:39.947Z,155
2017-07-11T07:08:03.445Z,170
2017-07-11T07:08:28.934Z,165
2017-07-11T07:08:54.389Z,160
2017-07-11T07:09:19.880Z,160
2017-07-11T07:09:45.351Z,165
2017-07-11T07:10:10.832Z,170
2017-07-11T07:10:36.316Z,170
2017-07-11T07:11:01.813Z,175
2017-07-11T07:11:27.277Z,170
2017-07-11T07:11:52.763Z,160
2017-07-11T07:12:18.220Z,145
2017-07-11T07:12:43.691Z,135
2017-07-11T07:13:09.171Z,135
2017-07-11T07:13:34.640Z,130
2017-07-11T07:14:00.081Z,140
2017-07-11T07:14:25.552Z,140
2017-07-11T07:14:51.040Z,135
2017-07-11T07:15:16.516Z,135
2017-07-11T07:15:42.009Z,135
2017-07-11T07:16:07.499Z,135
2017-07-11T07:16:32.950Z,140
2017-07-11T07:16:58.424Z,140
2017-07-11T07:17:23.925Z,130
2017-07-11T07:17:49.405Z,120
2017-07-11T07:18:14.865Z,120
2017-07-11T07:18:40.331Z,115
2017-07-11T07:19:05.811Z,110
2017-07-11T07:19:31.279Z,110
2017-07-11T07:19:56.737Z,105
2017-07-11T07:20:22.213Z,110
2017-07-11T07:20:47.660Z,120
2017-07-11T07:21:13.141Z,110
2017-07-11T07:21:38.614Z,100
2017-07-11T07:22:04.069Z,120
2017-07-11T07:22:29.534Z,140
2017-07-11T07:22:55.004Z,135
2017-07-11T07:23:20.459Z,125
2017-07-11T07:23:45.939Z,125
2017-07-11T07:24:11.399Z,135
2017-07-11T07:24:36.900Z,135
2017-07-11T07:25:02.365Z,140
2017-07-11T07:25:27.840Z,155
2017-07-11T07:25:53.308Z,180
2017-07-11T07:26:18.768Z,185
2017-07-11T07:26:44.239Z,165
2017-07-11T07:27:09.717Z,125
2017-07-11T07:27:35.197Z,110
2017-07-11T07:28:00.674Z,125
2017-07-11T07:28:26.113Z,125
2017-07-11T07:28:51.607Z,125
2017-07-11T07:29:17.061Z,120
2017-07-11T07:29:42.546Z,110
2017-07-11T07:30:08.025Z,110
2017-07-11T07:30:33.507Z,115
2017-07-11T07:30:58.986Z,110
2017-07-11T07:31:24.471Z,110
2017-07-11T07:31:49.923Z,110
2017-07-11T07:32:15.389Z,100
2017-07-11T07:32:40.889Z,100
2017-07-11T07:33:06.363Z,95
2017-07-11T07:33:31.839Z,100
2017-07-11T07:33:57.347Z,100
2017-07-11T07:34:22.820Z,100
2017-07-11T07:34:48.309Z,95
2017-07-11T07:35:13.801Z,90
2017-07-11T07:35:39.300Z,85
2017-07-11T07:36:04.757Z,80
2017-07-11T07:36:30.218Z,75
2017-07-11T07:36:55.669Z,75
2017-07-11T07:37:21.126Z,75
2017-07-11T07:37:46.590Z,80
2017-07-11T07:38:12.064Z,70
2017-07-11T07:38:37.534Z,70
2017-07-11T07:39:03.032Z,70
2017-07-11T07:39:28.508Z,75
2017-07-11T07:39:53.990Z,80
2017-07-11T07:40:19.486Z,85
2017-07-11T07:40:44.929Z,90
2017-07-11T07:41:10.396Z,85
2017-07-11T07:41:35.871Z,80
2017-07-11T07:42:01.358Z,80
2017-07-11T07:42:26.861Z,90
2017-07-11T07:42:52.346Z,95
2017-07-11T07:43:17.834Z,95
2017-07-11T07:43:43.304Z,90
2017-07-11T07:44:08.786Z,90
2017-07-11T07:44:34.285Z,90
2017-07-11T07:44:59.785Z,95
2017-07-11T07:45:25.248Z,120
2017-07-11T07:45:50.742Z,135
2017-07-11T07:46:16.239Z,130
2017-07-11T07:46:41.709Z,140
2017-07-11T07:47:07.183Z,145
2017-07-11T07:47:32.688Z,145
2017-07-11T07:47:58.156Z,155
2017-07-11T07:48:23.625Z,170
2017-07-11T07:48:49.067Z,160
2017-07-11T07:49:14.555Z,160
2017-07-11T07:49:40.029Z,165
2017-07-11T07:50:05.513Z,155
2017-07-11T07:50:30.984Z,155
2017-07-11T07:50:56.489Z,170
2017-07-11T07:51:21.969Z,175
2017-07-11T07:51:47.424Z,180
2017-07-11T07:52:12.893Z,180
2017-07-11T07:52:38.356Z,165
2017-07-11T07:53:03.811Z,165
2017-07-11T07:53:29.281Z,180
2017-07-11T07:53:54.770Z,180
2017-07-11T07:54:20.245Z,175
2017-07-11T07:54:45.747Z,155
2017-07-11T07:55:11.225Z,145
2017-07-11T07:55:36.715Z,175
2017-07-11T07:56:02.174Z,175
2017-07-11T07:56:27.644Z,170
2017-07-11T07:56:53.101Z,180
2017-07-11T07:57:18.558Z,155
2017-07-11T07:57:44.043Z,125
2017-07-11T07:58:09.517Z,115
2017-07-11T07:58:34.978Z,105
2017-07-11T07:59:00.455Z,110
2017-07-11T07:59:25.903Z,120
2017-07-11T07:59:51.349Z,125
2017-07-11T08:00:16.840Z,130
2017-07-11T08:00:42.336Z,135
2017-07-11T08:01:07.808Z,140
2017-07-11T08:01:33.298Z,140
2017-07-11T08:01:58.835Z,120
2017-07-11T08:02:24.277Z,115
2017-07-11T08:02:49.814Z,115
2017-07-11T08:03:15.309Z,110
2017-07-11T08:03:40.808Z,105
2017-07-11T08:04:06.297Z,105
2017-07-11T08:04:31.802Z,100
2017-07-11T08:04:57.290Z,95
2017-07-11T08:05:22.765Z,110
2017-07-11T08:05:48.241Z,115
2017-07-11T08:06:13.753Z,120
2017-07-11T08:06:39.211Z,120
2017-07-11T08:07:04.683Z,120
2017-07-11T08:07:30.176Z,120
2017-07-11T08:07:55.689Z,135
2017-07-11T08:08:21.095Z,125
2017-07-11T08:08:46.591Z,115
2017-07-11T08:09:12.061Z,110
2017-07-11T08:09:37.520Z,110
2017-07-11T08:10:02.979Z,105
2017-07-11T08:10:28.446Z,105
2017-07-11T08:10:53.921Z,120
2017-07-11T08:11:19.393Z,130
2017-07-11T08:11:44.839Z,150
2017-07-11T08:12:10.314Z,165
2017-07-11T08:12:35.796Z,155
2017-07-11T08:13:01.292Z,165
2017-07-11T08:13:26.779Z,170
2017-07-11T08:13:52.257Z,165
2017-07-11T08:14:17.729Z,155
2017-07-11T08:14:43.185Z,135
2017-07-11T08:15:08.660Z,120
2017-07-11T08:15:34.155Z,120
2017-07-11T08:15:59.654Z,130
2017-07-11T08:16:25.137Z,135
2017-07-11T08:16:50.582Z,130
2017-07-11T08:17:16.058Z,115
2017-07-11T08:17:41.549Z,120
2017-07-11T08:18:07.025Z,120
2017-07-11T08:18:32.501Z,110
2017-07-11T08:18:57.967Z,105
2017-07-11T08:19:23.447Z,100
2017-07-11T08:19:48.902Z,100
2017-07-11T08:20:14.360Z,105
2017-07-11T08:20:39.856Z,110
2017-07-11T08:21:05.335Z,110
2017-07-11T08:21:30.826Z,100
2017-07-11T08:21:56.307Z,100
2017-07-11T08:22:21.762Z,95
2017-07-11T08:22:47.233Z,90
2017-07-11T08:23:12.722Z,90
2017-07-11T08:23:38.202Z,85
2017-07-11T08:24:03.695Z,85
2017-07-11T08:24:29.185Z,95
2017-07-11T08:24:54.679Z,100
2017-07-11T08:25:20.164Z,110
2017-07-11T08:25:45.674Z,115
2017-07-11T08:26:11.148Z,130
2017-07-11T08:26:36.600Z,120
2017-07-11T08:27:02.079Z,110
2017-07-11T08:27:27.543Z,105
2017-07-11T08:27:53.015Z,105
2017-07-11T08:28:18.484Z,105
2017-07-11T08:28:43.942Z,105
2017-07-11T08:29:09.405Z,100
2017-07-11T08:29:34.858Z,90
2017-07-11T08:30:00.337Z,95
2017-07-11T08:30:25.822Z,85
2017-07-11T08:30:51.303Z,85
2017-07-11T08:31:16.748Z,90
2017-07-11T08:31:42.213Z,100
2017-07-11T08:32:07.697Z,105
2017-07-11T08:32:33.184Z,110
2017-07-11T08:32:58.648Z,105
2017-07-11T08:33:24.127Z,110
2017-07-11T08:33:49.606Z,105
2017-07-11T08:34:15.065Z,100
2017-07-11T08:34:40.534Z,95
2017-07-11T08:35:05.995Z,105
2017-07-11T08:35:31.484Z,110
2017-07-11T08:35:56.977Z,110
2017-07-11T08:36:22.461Z,110
2017-07-11T08:36:47.938Z,115
2017-07-11T08:37:13.433Z,120
2017-07-11T08:37:38.921Z,110
2017-07-11T08:38:04.388Z,120
2017-07-11T08:38:29.869Z,125
2017-07-11T08:38:55.364Z,130
2017-07-11T08:39:20.867Z,125
2017-07-11T08:39:46.352Z,125
2017-07-11T08:40:11.826Z,120
2017-07-11T08:40:37.275Z,120
2017-07-11T08:41:02.795Z,130
2017-07-11T08:41:28.268Z,120
2017-07-11T08:41:53.730Z,115
2017-07-11T08:42:19.219Z,105
2017-07-11T08:42:44.709Z,95
2017-07-11T08:43:10.184Z,90
2017-07-11T08:43:35.666Z,100
2017-07-11T08:44:01.166Z,110
2017-07-11T08:44:26.636Z,120
2017-07-11T08:44:52.120Z,130
2017-07-11T08:45:17.640Z,135
2017-07-11T08:45:43.115Z,145
2017-07-11T08:46:08.580Z,145
2017-07-11T08:46:34.082Z,140
2017-07-11T08:46:59.555Z,150
2017-07-11T08:47:25.048Z,150
2017-07-11T08:47:50.541Z,130
2017-07-11T08:48:16.022Z,120
2017-07-11T08:48:41.495Z,110
2017-07-11T08:49:06.962Z,100
2017-07-11T08:49:32.432Z,95
2017-07-11T08:49:57.907Z,100
2017-07-11T08:50:23.396Z,110
2017-07-11T08:50:48.842Z,115
2017-07-11T08:51:14.309Z,125
2017-07-11T08:51:39.777Z,125
2017-07-11T08:52:05.241Z,125
2017-07-11T08:52:30.696Z,130
2017-07-11T08:52:56.177Z,120
2017-07-11T08:53:21.643Z,120
2017-07-11T08:53:47.129Z,115
2017-07-11T08:54:12.569Z,115
2017-07-11T08:54:38.076Z,130
2017-07-11T08:55:03.533Z,140
2017-07-11T08:55:29.029Z,125
2017-07-11T08:55:54.527Z,150
2017-07-11T08:56:20.005Z,180
2017-07-11T08:56:45.497Z,170
2017-07-11T08:57:10.970Z,140
2017-07-11T08:57:36.454Z,145
2017-07-11T08:58:01.923Z,160
2017-07-11T08:58:27.376Z,180
2017-07-11T08:58:52.870Z,175
2017-07-11T08:59:18.313Z,165
2017-07-11T08:59:43.835Z,150
2017-07-11T09:00:09.304Z,120
2017-07-11T09:00:34.776Z,115
2017-07-11T09:01:00.255Z,120
2017-07-11T09:01:25.720Z,120
2017-07-11T09:01:51.190Z,110
2017-07-11T09:02:16.657Z,125
2017-07-11T09:02:42.126Z,150
2017-07-11T09:03:07.618Z,165
2017-07-11T09:03:33.092Z,180
2017-07-11T09:03:58.583Z,175
2017-07-11T09:04:24.020Z,175
2017-07-11T09:04:49.482Z,165
2017-07-11T09:05:14.956Z,170
2017-07-11T09:05:40.447Z,165
2017-07-11T09:06:05.924Z,155
2017-07-11T09:06:31.411Z,165
2017-07-11T09:06:56.927Z,170
2017-07-11T09:07:22.396Z,175
2017-07-11T09:07:47.893Z,175
2017-07-11T09:08:13.373Z,180
2017-07-11T09:08:38.850Z,190
2017-07-11T09:09:04.305Z,210
2017-07-11T09:09:29.789Z,235
2017-07-11T09:09:55.257Z,255
2017-07-11T09:10:20.727Z,305
2017-07-11T09:10:46.195Z,305
2017-07-11T09:11:11.670Z,275
2017-07-11T09:11:37.199Z,265
2017-07-11T09:12:02.630Z,230
2017-07-11T09:12:28.125Z,185
2017-07-11T09:12:53.584Z,180
2017-07-11T09:13:19.055Z,160
2017-07-11T09:13:44.511Z,125
2017-07-11T09:14:10.021Z,110
2017-07-11T09:14:35.495Z,130
2017-07-11T09:15:01.017Z,135
2017-07-11T09:15:26.493Z,145
2017-07-11T09:15:51.956Z,150
2017-07-11T09:16:17.445Z,135
2017-07-11T09:16:42.905Z,140
2017-07-11T09:17:08.373Z,155
2017-07-11T09:17:33.821Z,155
2017-07-11T09:17:59.296Z,160
2017-07-11T09:18:24.775Z,185
2017-07-11T09:18:50.268Z,230
2017-07-11T09:19:15.740Z,250
2017-07-11T09:19:41.234Z,225
2017-07-11T09:20:06.703Z,210
2017-07-11T09:20:32.178Z,225
2017-07-11T09:20:57.651Z,200
2017-07-11T09:21:23.139Z,165
2017-07-11T09:21:48.583Z,150
2017-07-11T09:22:14.029Z,175
2017-07-11T09:22:39.502Z,205
2017-07-11T09:23:04.994Z,210
2017-07-11T09:23:30.502Z,230
2017-07-11T09:23:55.987Z,260
2017-07-11T09:24:21.486Z,260
2017-07-11T09:24:46.949Z,255
2017-07-11T09:25:12.440Z,230
2017-07-11T09:25:37.932Z,215
2017-07-11T09:26:03.405Z,205
2017-07-11T09:26:28.903Z,185
2017-07-11T09:26:54.356Z,210
2017-07-11T09:27:19.831Z,215
2017-07-11T09:27:45.299Z,220
2017-07-11T09:28:10.774Z,215
2017-07-11T09:28:36.256Z,205
2017-07-11T09:29:01.728Z,210
2017-07-11T09:29:27.214Z,200
2017-07-11T09:29:52.698Z,200
2017-07-11T09:30:18.209Z,215
2017-07-11T09:30:43.684Z,260
2017-07-11T09:31:09.152Z,305
2017-07-11T09:31:34.628Z,300
2017-07-11T09:32:00.103Z,265
2017-07-11T09:32:25.594Z,235
2017-07-11T09:32:51.052Z,220
2017-07-11T09:33:16.534Z,200
2017-07-11T09:33:41.992Z,165
2017-07-11T09:34:07.445Z,150
2017-07-11T09:34:32.914Z,170
2017-07-11T09:34:58.392Z,200
2017-07-11T09:35:23.883Z,180
2017-07-11T09:35:49.337Z,170
2017-07-11T09:36:14.799Z,185
2017-07-11T09:36:40.299Z,180
2017-07-11T09:37:05.797Z,180
2017-07-11T09:37:31.255Z,190
2017-07-11T09:37:56.759Z,215
2017-07-11T09:38:22.226Z,230
2017-07-11T09:38:47.726Z,250
2017-07-11T09:39:13.205Z,260
2017-07-11T09:39:38.676Z,270
2017-07-11T09:40:04.153Z,265
2017-07-11T09:40:29.616Z,245
2017-07-11T09:40:55.114Z,225
2017-07-11T09:41:20.569Z,185
2017-07-11T09:41:46.035Z,165
2017-07-11T09:42:11.519Z,165
2017-07-11T09:42:36.989Z,160
2017-07-11T09:43:02.452Z,145
2017-07-11T09:43:27.929Z,145
2017-07-11T09:43:53.416Z,140
2017-07-11T09:44:18.921Z,125
2017-07-11T09:44:44.389Z,130
2017-07-11T09:45:09.843Z,155
2017-07-11T09:45:35.318Z,180
2017-07-11T09:46:00.794Z,190
2017-07-11T09:46:26.310Z,165
2017-07-11T09:46:51.788Z,180
2017-07-11T09:47:17.272Z,210
2017-07-11T09:47:42.742Z,240
2017-07-11T09:48:08.207Z,245
2017-07-11T09:48:33.684Z,255
2017-07-11T09:48:59.174Z,255
2017-07-11T09:49:24.650Z,230
2017-07-11T09:49:50.129Z,240
2017-07-11T09:50:15.586Z,275
2017-07-11T09:50:41.053Z,310
2017-07-11T09:51:06.547Z,285
2017-07-11T09:51:32.057Z,265
2017-07-11T09:51:57.535Z,240
2017-07-11T09:52:23.037Z,250
2017-07-11T09:52:48.501Z,265
2017-07-11T09:53:14.004Z,255
2017-07-11T09:53:39.489Z,240
2017-07-11T09:54:04.969Z,205
2017-07-11T09:54:30.455Z,225
2017-07-11T09:54:55.950Z,240
2017-07-11T09:55:21.456Z,235
2017-07-11T09:55:46.950Z,235
2017-07-11T09:56:12.438Z,250
2017-07-11T09:56:37.916Z,290
2017-07-11T09:57:03.402Z,290
2017-07-11T09:57:28.863Z,245
2017-07-11T09:57:54.357Z,240
2017-07-11T09:58:19.857Z,255
2017-07-11T09:58:45.347Z,260
2017-07-11T09:59:10.828Z,250
2017-07-11T09:59:36.332Z,260
2017-07-11T10:00:01.807Z,245
2017-07-11T10:00:27.338Z,210
2017-07-11T10:00:52.807Z,200
2017-07-11T10:01:18.313Z,225
2017-07-11T10:01:43.798Z,250
2017-07-11T10:02:09.258Z,245
2017-07-11T10:02:34.737Z,255
2017-07-11T10:03:00.199Z,265
2017-07-11T10:03:25.663Z,250
2017-07-11T10:03:51.155Z,225
2017-07-11T10:04:16.653Z,205
2017-07-11T10:04:42.122Z,190
2017-07-11T10:05:07.626Z,200
2017-07-11T10:05:33.106Z,205
2017-07-11T10:05:58.582Z,235
2017-07-11T10:06:24.053Z,325
2017-07-11T10:06:49.531Z,350
2017-07-11T10:07:15.044Z,330
2017-07-11T10:07:40.524Z,345
2017-07-11T10:08:06.022Z,385
2017-07-11T10:08:31.551Z,400
2017-07-11T10:08:57.063Z,385
2017-07-11T10:09:22.545Z,370
2017-07-11T10:09:48.065Z,360
2017-07-11T10:10:13.554Z,335
2017-07-11T10:10:39.064Z,325
2017-07-11T10:11:04.551Z,325
2017-07-11T10:11:30.015Z,310
2017-07-11T10:11:55.481Z,325
2017-07-11T10:12:20.996Z,350
2017-07-11T10:12:46.454Z,365
2017-07-11T10:13:11.934Z,375
2017-07-11T10:13:37.406Z,375
2017-07-11T10:14:02.916Z,375
2017-07-11T10:14:28.398Z,360
2017-07-11T10:14:53.883Z,350
2017-07-11T10:15:19.352Z,340
2017-07-11T10:15:44.836Z,315
2017-07-11T10:16:10.307Z,295
2017-07-11T10:16:35.791Z,310
2017-07-11T10:17:01.246Z,320
2017-07-11T10:17:26.760Z,320
2017-07-11T10:17:52.252Z,325
2017-07-11T10:18:17.753Z,325
2017-07-11T10:18:43.250Z,325
2017-07-11T10:19:08.801Z,340
2017-07-11T10:19:34.209Z,340
2017-07-11T10:19:59.706Z,315
2017-07-11T10:20:25.184Z,330
2017-07-11T10:20:50.648Z,355
2017-07-11T10:21:16.121Z,360
2017-07-11T10:21:41.570Z,365
2017-07-11T10:22:07.045Z,360
2017-07-11T10:22:32.524Z,345
2017-07-11T10:22:58.014Z,320
2017-07-11T10:23:23.471Z,300
2017-07-11T10:23:48.940Z,265
2017-07-11T10:24:14.438Z,260
2017-07-11T10:24:39.925Z,285
2017-07-11T10:25:05.380Z,300
2017-07-11T10:25:30.896Z,305
2017-07-11T10:25:56.381Z,310
2017-07-11T10:26:21.858Z,315
2017-07-11T10:26:47.329Z,280
2017-07-11T10:27:12.797Z,250
2017-07-11T10:27:38.251Z,220
2017-07-11T10:28:03.735Z,210
2017-07-11T10:28:29.235Z,220
2017-07-11T10:28:54.721Z,250
2017-07-11T10:29:20.188Z,285
2017-07-11T10:29:45.667Z,310
2017-07-11T10:30:11.132Z,310
2017-07-11T10:30:36.623Z,280
2017-07-11T10:31:02.099Z,260
2017-07-11T10:31:27.574Z,265
2017-07-11T10:31:53.066Z,285
2017-07-11T10:32:18.507Z,320
2017-07-11T10:32:43.988Z,325
2017-07-11T10:33:09.498Z,290
2017-07-11T10:33:34.970Z,270
2017-07-11T10:34:00.435Z,245
2017-07-11T10:34:25.903Z,215
2017-07-11T10:34:51.390Z,210
2017-07-11T10:35:16.902Z,215
2017-07-11T10:35:42.388Z,210
2017-07-11T10:36:07.843Z,205
2017-07-11T10:36:33.359Z,205
2017-07-11T10:36:58.823Z,200
2017-07-11T10:37:24.315Z,195
2017-07-11T10:37:49.829Z,190
2017-07-11T10:38:15.288Z,185
2017-07-11T10:38:40.763Z,185
2017-07-11T10:39:06.254Z,180
2017-07-11T10:39:31.750Z,190
2017-07-11T10:39:57.213Z,185
2017-07-11T10:40:22.696Z,175
2017-07-11T10:40:48.187Z,170
2017-07-11T10:41:13.653Z,170
2017-07-11T10:41:39.163Z,165
2017-07-11T10:42:04.642Z,165
2017-07-11T10:42:30.101Z,160
2017-07-11T10:42:55.553Z,155
2017-07-11T10:43:21.040Z,150
2017-07-11T10:43:46.510Z,150
2017-07-11T10:44:11.974Z,150
2017-07-11T10:44:37.471Z,150
2017-07-11T10:45:02.922Z,150
2017-07-11T10:45:28.389Z,155
2017-07-11T10:45:53.867Z,165
2017-07-11T10:46:19.321Z,165
2017-07-11T10:46:44.783Z,190
2017-07-11T10:47:10.259Z,210
2017-07-11T10:47:35.747Z,190
2017-07-11T10:48:01.229Z,155
2017-07-11T10:48:26.733Z,130
2017-07-11T10:48:52.209Z,140
2017-07-11T10:49:17.700Z,155
2017-07-11T10:49:43.183Z,160
2017-07-11T10:50:08.650Z,190
2017-07-11T10:50:34.158Z,175
2017-07-11T10:50:59.634Z,165
2017-07-11T10:51:25.111Z,155
2017-07-11T10:51:50.618Z,160
2017-07-11T10:52:16.110Z,165
2017-07-11T10:52:41.590Z,180
2017-07-11T10:53:07.075Z,200
2017-07-11T10:53:32.533Z,190
2017-07-11T10:53:58.016Z,195
2017-07-11T10:54:23.504Z,185
2017-07-11T10:54:48.962Z,180
2017-07-11T10:55:14.446Z,190
2017-07-11T10:55:39.924Z,215
2017-07-11T10:56:05.407Z,215
2017-07-11T10:56:30.865Z,200
2017-07-11T10:56:56.344Z,190
2017-07-11T10:57:21.829Z,210
2017-07-11T10:57:47.329Z,205
2017-07-11T10:58:12.822Z,190
2017-07-11T10:58:38.297Z,190
2017-07-11T10:59:03.758Z,170
2017-07-11T10:59:29.233Z,170
2017-07-11T10:59:54.731Z,175
2017-07-11T11:00:20.189Z,165
2017-07-11T11:00:45.681Z,150
2017-07-11T11:01:11.155Z,150
2017-07-11T11:01:36.636Z,170
2017-07-11T11:02:02.095Z,165
2017-07-11T11:02:27.569Z,150
2017-07-11T11:02:53.026Z,150
2017-07-11T11:03:18.518Z,160
2017-07-11T11:03:44.005Z,180
2017-07-11T11:04:09.465Z,195
2017-07-11T11:04:34.960Z,190
2017-07-11T11:05:00.412Z,170
2017-07-11T11:05:25.899Z,155
2017-07-11T11:05:51.366Z,150
2017-07-11T11:06:16.851Z,155
2017-07-11T11:06:42.322Z,155
2017-07-11T11:07:07.819Z,170
2017-07-11T11:07:33.295Z,170
2017-07-11T11:07:58.785Z,165
2017-07-11T11:08:24.246Z,180
2017-07-11T11:08:49.737Z,195
2017-07-11T11:09:15.209Z,180
2017-07-11T11:09:40.695Z,165
2017-07-11T11:10:06.191Z,155
2017-07-11T11:10:31.686Z,160
2017-07-11T11:10:57.175Z,160
2017-07-11T11:11:22.653Z,165
2017-07-11T11:11:48.132Z,160
2017-07-11T11:12:13.612Z,155
2017-07-11T11:12:39.086Z,165
2017-07-11T11:13:04.586Z,195
2017-07-11T11:13:30.087Z,210
2017-07-11T11:13:55.578Z,240
2017-07-11T11:14:21.063Z,250
2017-07-11T11:14:46.542Z,250
2017-07-11T11:15:12.024Z,225
2017-07-11T11:15:37.502Z,215
2017-07-11T11:16:02.990Z,215
2017-07-11T11:16:28.489Z,210
2017-07-11T11:16:53.953Z,180
2017-07-11T11:17:19.426Z,170
2017-07-11T11:17:44.939Z,175
2017-07-11T11:18:10.377Z,175
2017-07-11T11:18:35.945Z,185
2017-07-11T11:19:01.411Z,190
2017-07-11T11:19:26.893Z,195
2017-07-11T11:19:52.360Z,200
2017-07-11T11:20:17.832Z,180
2017-07-11T11:20:43.304Z,195
2017-07-11T11:21:08.766Z,210
2017-07-11T11:21:34.254Z,220
2017-07-11T11:21:59.709Z,205
2017-07-11T11:22:25.185Z,195
2017-07-11T11:22:50.658Z,210
2017-07-11T11:23:16.166Z,205
2017-07-11T11:23:41.626Z,195
2017-07-11T11:24:07.125Z,210
2017-07-11T11:24:32.605Z,195
2017-07-11T11:24:58.067Z,180
2017-07-11T11:25:23.534Z,165